Time;durP1;ratioP1;P1;durP2;ratioP2;P2;SDS_P1;SDS_P2;PMS_P1;PMS_P2;Temp;Humidity;BMP_temperature;BMP_pressure;BME280_temperature;BME280_humidity;BME280_pressure;Samples;Min_cycle;Max_cycle;Signal;HPM_P1;HPM_P2
2021/10/15 00:01:03;;;;;;;2.95;2.75;;;7.70;99.90;;;;;;5040806;28;20284;-78
2021/10/15 00:03:30;;;;;;;2.50;2.30;;;7.70;99.90;;;;;;5043242;28;20234;-77
2021/10/15 00:05:57;;;;;;;2.72;2.53;;;7.70;99.90;;;;;;5044187;28;20219;-76
2021/10/15 00:08:24;;;;;;;3.10;2.80;;;7.80;99.90;;;;;;5041908;28;20329;-76
2021/10/15 00:10:53;;;;;;;2.80;2.60;;;7.70;99.90;;;;;;5044411;28;20716;-77
2021/10/15 00:13:20;;;;;;;3.00;2.80;;;7.70;99.90;;;;;;5042632;28;20292;-76
2021/10/15 00:15:47;;;;;;;4.05;2.80;;;7.70;99.90;;;;;;5039816;28;20226;-78
2021/10/15 00:18:14;;;;;;;2.80;2.60;;;7.70;99.90;;;;;;5042070;28;20222;-77
2021/10/15 00:20:41;;;;;;;3.03;2.83;;;7.70;99.90;;;;;;5037066;28;20741;-79
2021/10/15 00:23:08;;;;;;;3.00;2.80;;;7.60;99.90;;;;;;5042300;28;20645;-79
2021/10/15 00:25:35;;;;;;;2.90;2.70;;;7.60;99.90;;;;;;5041496;28;20308;-79
2021/10/15 00:28:04;;;;;;;3.33;3.08;;;7.60;99.90;;;;;;5039392;28;20280;-77
2021/10/15 00:30:31;;;;;;;3.00;2.80;;;7.50;99.90;;;;;;5036668;28;20245;-76
2021/10/15 00:32:58;;;;;;;2.80;2.60;;;7.50;99.90;;;;;;5044566;28;20242;-79
2021/10/15 00:35:25;;;;;;;3.00;2.80;;;7.50;99.90;;;;;;5042726;28;20210;-79
2021/10/15 00:37:52;;;;;;;3.25;3.03;;;7.40;99.90;;;;;;5040758;28;20295;-78
2021/10/15 00:40:19;;;;;;;2.97;2.67;;;7.40;99.90;;;;;;5040064;28;20227;-77
2021/10/15 00:42:47;;;;;;;3.10;2.90;;;7.40;99.90;;;;;;5041794;28;20222;-78
2021/10/15 00:45:15;;;;;;;3.05;2.78;;;7.50;99.90;;;;;;5039942;28;20281;-79
2021/10/15 00:47:43;;;;;;;3.60;3.30;;;7.40;99.90;;;;;;5043975;28;20207;-79
2021/10/15 00:50:10;;;;;;;2.75;2.55;;;7.40;99.90;;;;;;5034942;28;20248;-77
2021/10/15 00:52:40;;;;;;;3.38;3.10;;;7.40;99.90;;;;;;5039900;28;20288;-76
2021/10/15 00:55:08;;;;;;;2.95;2.75;;;7.40;99.90;;;;;;5040420;28;20593;-76
2021/10/15 00:57:35;;;;;;;3.50;3.30;;;7.40;99.90;;;;;;5040670;28;20293;-77
2021/10/15 01:00:02;;;;;;;3.35;2.90;;;7.40;99.90;;;;;;5035696;28;20222;-76
2021/10/15 01:02:30;;;;;;;3.80;3.50;;;7.40;99.90;;;;;;5039727;28;20223;-77
2021/10/15 01:04:57;;;;;;;3.45;2.85;;;7.30;99.90;;;;;;5042207;28;20222;-78
2021/10/15 01:07:25;;;;;;;3.15;2.92;;;7.30;99.90;;;;;;5043801;28;20256;-76
2021/10/15 01:09:52;;;;;;;3.42;3.13;;;7.30;99.90;;;;;;5040551;28;20280;-78
2021/10/15 01:12:20;;;;;;;3.15;2.90;;;7.30;99.90;;;;;;5040358;28;20230;-78
2021/10/15 01:14:47;;;;;;;3.50;3.22;;;7.30;99.90;;;;;;5036630;28;20219;-77
2021/10/15 01:17:15;;;;;;;3.25;3.05;;;7.30;99.90;;;;;;5041268;28;20284;-79
2021/10/15 01:19:43;;;;;;;3.80;3.50;;;7.30;99.90;;;;;;5038492;28;20570;-77
2021/10/15 01:22:11;;;;;;;2.92;2.72;;;7.30;99.90;;;;;;5042089;28;20272;-76
2021/10/15 01:24:38;;;;;;;3.28;3.08;;;7.30;99.90;;;;;;5040159;28;20215;-77
2021/10/15 01:27:07;;;;;;;3.47;3.17;;;7.20;99.90;;;;;;5042744;28;20296;-77
2021/10/15 01:29:34;;;;;;;3.38;3.13;;;7.20;99.90;;;;;;5037314;28;20214;-76
2021/10/15 01:32:02;;;;;;;2.80;2.60;;;7.30;99.90;;;;;;5037468;28;20609;-78
2021/10/15 01:34:29;;;;;;;3.50;3.20;;;7.30;99.90;;;;;;5039866;28;20219;-76
2021/10/15 01:36:56;;;;;;;2.90;2.67;;;7.40;99.90;;;;;;5041275;28;20280;-79
2021/10/15 01:39:24;;;;;;;3.38;3.08;;;7.30;99.90;;;;;;5039907;28;20582;-77
2021/10/15 01:41:51;;;;;;;3.55;3.25;;;7.30;99.90;;;;;;5039939;28;20782;-75
2021/10/15 01:44:18;;;;;;;3.38;3.10;;;7.30;99.90;;;;;;5039774;28;20798;-77
2021/10/15 01:46:45;;;;;;;3.30;3.00;;;7.20;99.90;;;;;;5042421;28;20572;-76
2021/10/15 01:49:12;;;;;;;2.97;2.78;;;7.20;99.90;;;;;;5038595;28;20279;-79
2021/10/15 01:51:39;;;;;;;2.97;2.78;;;7.20;99.90;;;;;;5041736;28;20284;-75
2021/10/15 01:54:07;;;;;;;3.75;3.45;;;7.10;99.90;;;;;;5037235;28;20218;-75
2021/10/15 01:56:36;;;;;;;4.43;3.58;;;7.10;99.90;;;;;;5036171;28;20300;-78
2021/10/15 01:59:04;;;;;;;4.13;3.17;;;7.10;99.90;;;;;;5039332;28;20807;-76
2021/10/15 02:01:31;;;;;;;3.13;2.92;;;7.10;99.90;;;;;;5036734;28;20604;-79
2021/10/15 02:03:58;;;;;;;3.03;2.80;;;7.10;99.90;;;;;;5035514;28;20292;-75
2021/10/15 02:06:26;;;;;;;3.85;3.40;;;7.10;99.90;;;;;;5039807;28;20353;-76
2021/10/15 02:08:53;;;;;;;3.97;3.33;;;7.10;99.90;;;;;;5037242;28;20283;-73
2021/10/15 02:11:20;;;;;;;3.50;3.20;;;7.10;99.90;;;;;;5035182;28;20235;-75
2021/10/15 02:13:48;;;;;;;3.70;3.40;;;7.10;99.90;;;;;;5040220;28;20709;-75
2021/10/15 02:16:15;;;;;;;3.22;3.03;;;7.10;99.90;;;;;;5041199;28;20276;-76
2021/10/15 02:18:42;;;;;;;3.40;2.63;;;7.00;99.90;;;;;;5037660;28;20281;-75
2021/10/15 02:21:09;;;;;;;2.95;2.75;;;7.00;99.90;;;;;;5040308;28;20813;-76
2021/10/15 02:23:36;;;;;;;3.45;3.22;;;7.00;99.90;;;;;;5042709;28;20296;-76
2021/10/15 02:26:03;;;;;;;3.15;2.88;;;7.00;99.90;;;;;;5036104;28;20733;-75
2021/10/15 02:28:30;;;;;;;3.33;2.90;;;7.00;99.90;;;;;;5039388;28;20281;-77
2021/10/15 02:30:59;;;;;;;3.72;3.42;;;6.90;99.90;;;;;;5038983;28;20674;-76
2021/10/15 02:33:26;;;;;;;3.30;3.05;;;6.90;99.90;;;;;;5039652;28;20272;-76
2021/10/15 02:35:53;;;;;;;4.40;3.50;;;6.90;99.90;;;;;;5036490;28;20288;-75
2021/10/15 02:38:20;;;;;;;3.42;3.13;;;6.90;99.90;;;;;;5041784;28;20234;-76
2021/10/15 02:40:47;;;;;;;3.65;3.35;;;6.90;99.90;;;;;;5036724;28;20285;-76
2021/10/15 02:43:14;;;;;;;3.63;3.33;;;6.80;99.90;;;;;;5037959;28;20261;-75
2021/10/15 02:45:41;;;;;;;4.07;3.47;;;6.80;99.90;;;;;;5035341;28;20251;-76
2021/10/15 02:48:10;;;;;;;2.90;2.70;;;6.80;99.90;;;;;;5040143;28;20214;-77
2021/10/15 02:50:37;;;;;;;3.05;2.85;;;6.80;99.90;;;;;;5037621;28;20719;-77
2021/10/15 02:53:04;;;;;;;3.28;3.03;;;6.80;99.90;;;;;;5041097;28;20586;-75
2021/10/15 02:55:31;;;;;;;3.38;3.08;;;6.70;99.90;;;;;;5041321;28;20216;-75
2021/10/15 02:57:58;;;;;;;3.40;3.10;;;6.70;99.90;;;;;;5042678;28;20235;-75
2021/10/15 03:00:25;;;;;;;2.90;2.70;;;6.70;99.90;;;;;;5043973;28;20301;-75
2021/10/15 03:02:52;;;;;;;3.45;3.15;;;6.80;99.90;;;;;;5040720;28;20280;-75
2021/10/15 03:05:21;;;;;;;3.67;3.38;;;6.80;99.90;;;;;;5040403;28;20256;-74
2021/10/15 03:07:48;;;;;;;2.80;2.60;;;6.80;99.90;;;;;;5044955;28;20227;-75
2021/10/15 03:10:15;;;;;;;3.00;2.80;;;6.80;99.90;;;;;;5035176;28;20593;-75
2021/10/15 03:12:42;;;;;;;3.53;3.22;;;6.70;99.90;;;;;;5041347;28;20234;-77
2021/10/15 03:15:10;;;;;;;3.65;3.35;;;6.70;99.90;;;;;;5038626;28;20268;-76
2021/10/15 03:17:37;;;;;;;3.28;3.08;;;6.70;99.90;;;;;;5041313;28;20579;-76
2021/10/15 03:20:05;;;;;;;3.50;3.20;;;6.70;99.90;;;;;;5035883;28;20292;-77
2021/10/15 03:22:33;;;;;;;3.60;3.30;;;6.60;99.90;;;;;;5036703;28;20985;-75
2021/10/15 03:25:00;;;;;;;3.22;2.92;;;6.60;99.90;;;;;;5037344;28;20223;-75
2021/10/15 03:27:27;;;;;;;3.50;3.30;;;6.60;99.90;;;;;;5041372;28;20284;-79
2021/10/15 03:29:54;;;;;;;3.33;3.05;;;6.50;99.90;;;;;;5062762;28;20253;-78
2021/10/15 03:32:22;;;;;;;3.28;3.08;;;6.50;99.90;;;;;;5053111;28;20229;-77
2021/10/15 03:34:49;;;;;;;3.38;3.08;;;6.50;99.90;;;;;;5045488;28;20227;-76
2021/10/15 03:37:16;;;;;;;3.40;3.10;;;6.50;99.90;;;;;;5043092;28;20272;-76
2021/10/15 03:39:45;;;;;;;3.85;3.55;;;6.50;99.90;;;;;;5042264;28;20258;-75
2021/10/15 03:42:12;;;;;;;3.65;3.42;;;6.50;99.90;;;;;;5043041;28;20785;-75
2021/10/15 03:44:39;;;;;;;2.80;2.60;;;6.50;99.90;;;;;;5039499;28;20270;-76
2021/10/15 03:47:06;;;;;;;2.83;2.63;;;6.40;99.90;;;;;;5039949;28;20232;-76
2021/10/15 03:49:33;;;;;;;2.78;2.58;;;6.40;99.90;;;;;;5038728;28;20643;-75
2021/10/15 03:52:00;;;;;;;3.83;3.47;;;6.30;99.90;;;;;;5042104;28;20272;-77
2021/10/15 03:54:27;;;;;;;3.55;3.25;;;6.30;99.90;;;;;;5040256;28;20218;-77
2021/10/15 03:56:55;;;;;;;3.20;2.92;;;6.30;99.90;;;;;;5015842;28;20218;-78
2021/10/15 03:59:22;;;;;;;2.88;2.67;;;6.30;99.90;;;;;;5041001;28;20227;-76
2021/10/15 04:01:49;;;;;;;2.97;2.78;;;6.30;99.90;;;;;;5035491;28;20265;-76
2021/10/15 04:04:16;;;;;;;3.58;3.33;;;6.30;99.90;;;;;;5040403;28;20277;-75
2021/10/15 04:06:43;;;;;;;3.15;2.95;;;6.30;99.90;;;;;;5036556;28;20223;-76
2021/10/15 04:09:10;;;;;;;2.88;2.67;;;6.30;99.90;;;;;;5040462;28;20223;-78
2021/10/15 04:11:38;;;;;;;2.90;2.70;;;6.30;99.90;;;;;;5041096;28;20223;-76
2021/10/15 04:14:06;;;;;;;2.78;2.58;;;6.30;99.90;;;;;;5041016;28;20273;-77
2021/10/15 04:16:33;;;;;;;2.60;2.40;;;6.30;99.90;;;;;;5037622;28;20226;-76
2021/10/15 04:19:01;;;;;;;3.58;3.28;;;6.30;99.90;;;;;;5039793;28;20239;-80
2021/10/15 04:21:28;;;;;;;3.03;2.83;;;6.20;99.90;;;;;;5041889;28;20227;-76
2021/10/15 04:23:55;;;;;;;3.22;3.03;;;6.20;99.90;;;;;;5044504;28;20650;-76
2021/10/15 04:26:22;;;;;;;3.40;3.10;;;6.20;99.90;;;;;;5038704;28;20223;-76
2021/10/15 04:28:49;;;;;;;3.22;3.03;;;6.20;99.90;;;;;;5056537;28;20226;-81
2021/10/15 04:31:17;;;;;;;3.38;3.03;;;6.10;99.90;;;;;;5038309;28;20273;-76
2021/10/15 04:33:45;;;;;;;3.20;3.00;;;6.10;99.90;;;;;;5042819;28;20756;-76
2021/10/15 04:36:12;;;;;;;3.20;3.00;;;6.10;99.90;;;;;;5038487;28;20227;-76
2021/10/15 04:38:39;;;;;;;3.90;3.20;;;6.00;99.90;;;;;;5041657;28;20666;-76
2021/10/15 04:41:06;;;;;;;3.30;3.10;;;6.00;99.90;;;;;;5039657;28;20227;-75
2021/10/15 04:43:33;;;;;;;3.25;3.05;;;6.00;99.90;;;;;;5041133;28;20227;-75
2021/10/15 04:46:00;;;;;;;2.88;2.67;;;6.00;99.90;;;;;;5042968;28;20238;-76
2021/10/15 04:48:28;;;;;;;3.03;2.83;;;6.00;99.90;;;;;;5039850;28;20234;-75
2021/10/15 04:50:56;;;;;;;3.25;3.05;;;6.00;99.90;;;;;;5039835;28;20230;-77
2021/10/15 04:53:23;;;;;;;2.97;2.78;;;6.00;99.90;;;;;;5040077;28;20251;-76
2021/10/15 04:55:50;;;;;;;3.03;2.83;;;6.00;99.90;;;;;;5038630;28;20226;-76
2021/10/15 04:58:17;;;;;;;3.30;3.10;;;6.00;99.90;;;;;;5037664;28;20666;-76
2021/10/15 05:00:45;;;;;;;3.10;2.90;;;6.00;99.90;;;;;;5043772;28;20722;-76
2021/10/15 05:03:12;;;;;;;3.15;2.95;;;6.00;99.90;;;;;;5040499;28;20299;-75
2021/10/15 05:05:43;;;;;;;2.85;2.65;;;5.90;99.90;;;;;;5041702;28;20222;-76
2021/10/15 05:08:11;;;;;;;3.17;2.70;;;5.90;99.90;;;;;;5039603;28;20296;-76
2021/10/15 05:10:42;;;;;;;3.20;3.00;;;5.90;99.90;;;;;;5037146;28;20340;-76
2021/10/15 05:13:11;;;;;;;4.25;2.95;;;6.00;99.90;;;;;;5043995;22;20572;-78
2021/10/15 05:15:38;;;;;;;3.03;2.83;;;6.00;99.90;;;;;;5053931;28;20279;-79
2021/10/15 05:18:05;;;;;;;2.47;2.38;;;6.00;99.90;;;;;;5056734;28;21659;-77
2021/10/15 05:20:32;;;;;;;2.78;2.58;;;6.00;99.90;;;;;;5057234;28;20595;-78
2021/10/15 05:23:01;;;;;;;3.00;2.80;;;6.00;99.90;;;;;;5057029;28;20241;-79
2021/10/15 05:25:28;;;;;;;3.33;3.08;;;6.00;99.90;;;;;;5059155;28;20221;-79
2021/10/15 05:27:55;;;;;;;2.92;2.72;;;6.00;99.90;;;;;;5053619;28;20218;-78
2021/10/15 05:30:22;;;;;;;3.30;3.10;;;6.00;99.90;;;;;;5055062;28;20595;-78
2021/10/15 05:32:49;;;;;;;3.03;2.83;;;6.00;99.90;;;;;;5057477;28;20238;-78
2021/10/15 05:35:16;;;;;;;3.00;2.80;;;6.00;99.90;;;;;;5063703;28;20214;-78
2021/10/15 05:37:43;;;;;;;2.70;2.50;;;6.00;99.90;;;;;;5063922;28;20210;-78
2021/10/15 05:40:13;;;;;;;2.97;2.78;;;6.00;99.90;;;;;;5060812;28;20226;-79
2021/10/15 05:42:44;;;;;;;3.78;3.47;;;6.00;99.90;;;;;;5052740;28;20879;-79
2021/10/15 05:45:11;;;;;;;3.38;3.10;;;6.00;99.90;;;;;;5050888;28;20296;-78
2021/10/15 05:47:38;;;;;;;3.75;3.55;;;6.10;99.90;;;;;;5055042;28;20366;-79
2021/10/15 05:50:08;;;;;;;3.70;3.40;;;6.00;99.90;;;;;;5054158;28;20280;-78
2021/10/15 05:52:38;;;;;;;3.83;3.22;;;6.10;99.90;;;;;;5057193;28;20375;-79
2021/10/15 05:55:16;;;;;;;3.35;3.15;;;6.10;99.90;;;;;;5055888;28;20315;-79
2021/10/15 06:00:31;;;;;;;3.15;2.95;;;6.10;99.90;;;;;;5059067;28;20605;-76
2021/10/15 06:02:58;;;;;;;3.50;3.25;;;6.00;99.90;;;;;;5056647;28;20254;-77
2021/10/15 06:16:23;;;;;;;2.70;2.50;;;6.10;99.90;;;;;;5058520;28;20734;-79
2021/10/15 06:18:57;;;;;;;3.40;3.13;;;6.20;99.90;;;;;;5056943;28;20222;-78
2021/10/15 06:21:25;;;;;;;2.92;2.72;;;6.20;99.90;;;;;;5055375;28;20590;-78
2021/10/15 06:23:53;;;;;;;3.53;3.15;;;6.20;99.90;;;;;;5058058;28;20875;-77
2021/10/15 06:26:20;;;;;;;3.00;2.80;;;6.20;99.90;;;;;;5055890;28;20728;-78
2021/10/15 06:28:49;;;;;;;3.38;3.17;;;6.30;99.90;;;;;;5060158;28;20682;-79
2021/10/15 06:31:16;;;;;;;2.80;2.60;;;6.30;99.90;;;;;;5061415;28;20217;-79
2021/10/15 06:33:43;;;;;;;2.90;2.70;;;6.30;99.90;;;;;;5060766;28;20229;-78
2021/10/15 06:36:10;;;;;;;2.70;2.50;;;6.30;99.90;;;;;;5058536;28;20288;-79
2021/10/15 06:38:37;;;;;;;3.28;2.85;;;6.30;99.90;;;;;;5061578;28;20229;-78
2021/10/15 06:41:04;;;;;;;4.93;2.60;;;6.40;99.90;;;;;;5058201;28;20269;-79
2021/10/15 06:43:31;;;;;;;2.78;2.58;;;6.30;99.90;;;;;;5061809;28;20283;-79
2021/10/15 06:46:00;;;;;;;2.67;2.47;;;6.30;99.90;;;;;;5055524;28;20739;-78
2021/10/15 06:48:27;;;;;;;2.88;2.67;;;6.30;99.90;;;;;;5058401;28;20226;-76
2021/10/15 06:50:54;;;;;;;2.70;2.50;;;6.40;99.90;;;;;;5036496;28;20223;-77
2021/10/15 06:53:21;;;;;;;2.70;2.60;;;7.20;99.90;;;;;;5058856;28;20299;-78
2021/10/15 06:55:48;;;;;;;3.22;2.92;;;8.30;99.90;;;;;;5054471;28;20230;-79
2021/10/15 06:58:18;;;;;;;2.75;2.55;;;9.20;99.90;;;;;;5054113;28;20214;-77
2021/10/15 07:00:47;;;;;;;3.00;2.80;;;10.10;99.90;;;;;;5055159;28;20291;-78
2021/10/15 07:03:16;;;;;;;2.85;2.65;;;10.50;99.90;;;;;;5058450;28;20625;-78
2021/10/15 07:05:43;;;;;;;2.70;2.50;;;10.80;99.90;;;;;;5060795;28;20222;-76
2021/10/15 07:08:10;;;;;;;3.25;2.95;;;11.50;99.90;;;;;;5060122;28;20244;-79
2021/10/15 07:10:41;;;;;;;3.05;2.67;;;11.90;99.90;;;;;;5065835;28;20268;-79
2021/10/15 07:13:08;;;;;;;3.10;2.90;;;12.20;99.90;;;;;;5065680;28;20476;-79
2021/10/15 07:15:35;;;;;;;3.85;3.20;;;12.40;99.90;;;;;;5061018;28;20222;-78
2021/10/15 07:18:03;;;;;;;3.85;3.00;;;12.40;99.90;;;;;;5064160;28;20876;-79
2021/10/15 07:20:32;;;;;;;3.10;2.90;;;12.40;99.90;;;;;;5065992;28;20218;-78
2021/10/15 07:22:59;;;;;;;3.00;2.80;;;12.70;99.90;;;;;;5063051;28;20234;-79
2021/10/15 07:25:26;;;;;;;2.97;2.72;;;12.90;99.90;;;;;;5059519;28;20742;-77
2021/10/15 07:27:53;;;;;;;3.17;2.97;;;12.70;99.90;;;;;;5055214;28;20225;-77
2021/10/15 07:30:20;;;;;;;3.30;3.00;;;12.50;99.90;;;;;;5058108;28;20294;-78
2021/10/15 07:32:52;;;;;;;3.15;2.85;;;12.30;99.90;;;;;;5058791;28;20233;-77
2021/10/15 07:35:19;;;;;;;3.25;2.40;;;12.40;99.90;;;;;;5060094;28;20226;-79
2021/10/15 07:37:48;;;;;;;3.15;2.67;;;12.60;99.90;;;;;;5060054;28;20222;-77
2021/10/15 07:40:15;;;;;;;3.70;2.65;;;12.80;99.90;;;;;;5056672;28;20315;-79
2021/10/15 07:42:42;;;;;;;3.38;2.72;;;13.30;99.90;;;;;;5057292;28;20575;-77
2021/10/15 07:45:09;;;;;;;3.13;2.85;;;13.60;99.90;;;;;;5055178;28;20226;-78
2021/10/15 07:47:36;;;;;;;2.60;2.35;;;13.90;99.90;;;;;;5057299;28;20249;-78
2021/10/15 07:50:04;;;;;;;2.97;2.75;;;14.30;99.90;;;;;;5057950;28;20225;-78
2021/10/15 07:52:31;;;;;;;3.13;2.83;;;14.60;99.90;;;;;;5060540;28;20275;-78
2021/10/15 07:54:59;;;;;;;4.15;2.92;;;14.70;99.90;;;;;;5062513;28;20291;-80
2021/10/15 07:57:26;;;;;;;4.00;2.80;;;14.70;99.90;;;;;;5062080;28;20439;-78
2021/10/15 07:59:53;;;;;;;2.97;2.67;;;14.50;99.90;;;;;;5063212;28;20676;-78
2021/10/15 08:02:24;;;;;;;3.88;2.58;;;14.50;99.90;;;;;;5054999;28;20238;-77
2021/10/15 08:04:51;;;;;;;2.95;2.60;;;14.70;99.90;;;;;;5060314;28;20222;-80
2021/10/15 08:07:18;;;;;;;3.00;2.80;;;14.80;99.90;;;;;;5059977;28;22957;-76
2021/10/15 08:09:45;;;;;;;3.28;2.97;;;14.70;99.90;;;;;;5062597;28;20234;-77
2021/10/15 08:12:16;;;;;;;3.30;2.80;;;14.80;99.90;;;;;;5061506;28;20237;-75
2021/10/15 08:14:43;;;;;;;3.90;3.33;;;14.70;99.90;;;;;;5063425;28;20226;-77
2021/10/15 08:17:11;;;;;;;3.72;3.00;;;14.50;99.90;;;;;;5059470;28;20226;-78
2021/10/15 08:19:38;;;;;;;4.72;2.80;;;14.80;99.90;;;;;;5059526;28;20231;-78
2021/10/15 08:22:06;;;;;;;3.45;2.90;;;14.80;99.90;;;;;;5060174;28;20288;-78
2021/10/15 08:24:33;;;;;;;3.55;3.05;;;15.10;99.90;;;;;;5063106;28;20594;-77
2021/10/15 08:27:00;;;;;;;3.55;3.08;;;15.50;99.90;;;;;;5059542;28;20302;-77
2021/10/15 08:29:30;;;;;;;2.97;2.58;;;15.80;99.90;;;;;;5051927;28;20226;-79
2021/10/15 08:31:57;;;;;;;3.95;3.55;;;15.90;99.90;;;;;;5059473;28;20230;-78
2021/10/15 08:34:26;;;;;;;4.55;3.13;;;15.90;99.90;;;;;;5054607;28;20229;-78
2021/10/15 08:36:53;;;;;;;3.35;2.95;;;15.70;99.90;;;;;;5057204;28;20229;-76
2021/10/15 08:39:23;;;;;;;3.17;2.88;;;15.70;99.90;;;;;;5057385;28;20230;-77
2021/10/15 08:41:50;;;;;;;3.05;2.50;;;15.50;99.90;;;;;;5053906;28;20226;-77
2021/10/15 08:44:17;;;;;;;3.17;2.42;;;15.30;99.90;;;;;;5057376;28;20777;-77
2021/10/15 08:46:46;;;;;;;6.57;3.17;;;15.60;99.90;;;;;;5059122;28;20222;-76
2021/10/15 08:49:13;;;;;;;2.97;2.60;;;15.60;99.90;;;;;;5056953;28;20229;-77
2021/10/15 08:51:40;;;;;;;7.15;2.53;;;15.70;99.90;;;;;;5053469;28;20224;-78
2021/10/15 08:54:07;;;;;;;2.60;2.40;;;15.90;99.90;;;;;;5057344;28;20229;-76
2021/10/15 08:56:35;;;;;;;3.20;2.58;;;15.90;99.90;;;;;;5053720;28;20237;-75
2021/10/15 08:59:04;;;;;;;3.97;2.63;;;15.70;99.90;;;;;;5060066;28;20250;-79
2021/10/15 09:01:40;;;;;;;3.05;2.60;;;15.60;99.90;;;;;;5043356;28;20283;-76
2021/10/15 09:04:10;;;;;;;2.85;2.65;;;15.50;99.90;;;;;;5053337;28;20561;-78
2021/10/15 09:06:39;;;;;;;3.17;2.85;;;15.40;99.90;;;;;;5051465;28;20226;-80
2021/10/15 09:09:07;;;;;;;3.00;2.80;;;15.30;99.90;;;;;;5056017;28;20304;-77
2021/10/15 09:11:37;;;;;;;2.55;2.35;;;15.40;99.90;;;;;;5052876;28;20222;-79
2021/10/15 09:14:15;;;;;;;5.20;2.67;;;15.50;99.90;;;;;;5058332;28;20226;-79
2021/10/15 09:16:53;;;;;;;2.65;2.28;;;15.80;99.90;;;;;;5055561;28;20283;-78
2021/10/15 09:19:28;;;;;;;4.57;2.60;;;15.80;99.90;;;;;;5056097;28;20214;-78
2021/10/15 09:22:12;;;;;;;4.10;2.55;;;16.00;99.90;;;;;;5051965;28;20577;-78
2021/10/15 09:24:41;;;;;;;2.53;2.33;;;16.10;99.90;;;;;;5046100;28;20759;-77
2021/10/15 09:27:13;;;;;;;2.75;2.55;;;16.40;99.90;;;;;;5055948;28;20690;-79
2021/10/15 09:29:45;;;;;;;2.72;2.40;;;16.30;99.90;;;;;;5059924;28;20290;-79
2021/10/15 09:32:13;;;;;;;2.38;2.17;;;16.40;99.90;;;;;;5061439;28;20307;-79
2021/10/15 09:34:42;;;;;;;2.95;2.20;;;16.70;99.90;;;;;;5056264;28;20249;-79
2021/10/15 09:37:17;;;;;;;2.63;2.42;;;16.80;99.90;;;;;;5058294;28;20226;-79
2021/10/15 09:39:45;;;;;;;2.63;2.42;;;16.80;99.90;;;;;;5057896;28;20716;-79
2021/10/15 09:42:26;;;;;;;3.42;2.40;;;17.00;99.90;;;;;;5057791;28;20218;-77
2021/10/15 09:44:55;;;;;;;3.33;2.55;;;17.10;99.90;;;;;;5057949;28;20600;-78
2021/10/15 09:47:26;;;;;;;3.03;2.35;;;17.30;99.90;;;;;;5060570;28;20230;-79
2021/10/15 09:49:57;;;;;;;3.97;2.28;;;17.10;99.90;;;;;;5058272;28;20237;-77
2021/10/15 09:52:36;;;;;;;2.80;2.33;;;16.80;99.90;;;;;;5059928;28;20283;-78
2021/10/15 09:55:16;;;;;;;2.55;2.35;;;16.60;99.90;;;;;;5056790;28;20585;-78
2021/10/15 09:57:45;;;;;;;5.07;3.60;;;16.60;99.90;;;;;;5059008;28;20225;-78
2021/10/15 10:00:14;;;;;;;6.28;4.88;;;16.50;99.90;;;;;;5062606;28;20353;-78
2021/10/15 10:02:41;;;;;;;5.57;4.03;;;16.80;99.90;;;;;;5060752;28;20719;-77
2021/10/15 10:05:13;;;;;;;16.55;9.68;;;16.90;99.90;;;;;;5066146;28;20221;-78
2021/10/15 10:07:41;;;;;;;12.73;8.90;;;17.30;99.90;;;;;;5065265;28;20232;-79
2021/10/15 10:10:10;;;;;;;6.93;5.03;;;17.90;99.90;;;;;;5061876;28;20656;-78
2021/10/15 10:12:39;;;;;;;3.90;3.20;;;18.20;99.90;;;;;;5062242;28;20237;-78
2021/10/15 10:15:09;;;;;;;2.85;2.58;;;18.30;99.90;;;;;;5065089;28;20715;-77
2021/10/15 10:17:41;;;;;;;2.45;2.25;;;18.10;99.90;;;;;;5056238;28;20229;-78
2021/10/15 10:20:16;;;;;;;4.22;2.60;;;17.60;99.90;;;;;;5054956;28;20657;-79
2021/10/15 10:22:54;;;;;;;2.85;2.15;;;17.30;99.90;;;;;;5055890;28;20237;-75
2021/10/15 10:25:24;;;;;;;2.60;2.40;;;17.20;99.90;;;;;;5050601;28;20287;-79
2021/10/15 10:27:53;;;;;;;2.70;2.50;;;17.00;99.90;;;;;;5053937;28;20226;-77
2021/10/15 10:30:38;;;;;;;2.90;2.63;;;16.90;99.90;;;;;;5057979;28;20312;-77
2021/10/15 10:33:05;;;;;;;2.35;2.10;;;17.00;99.90;;;;;;5055442;28;20244;-75
2021/10/15 10:35:34;;;;;;;2.10;1.90;;;17.30;99.90;;;;;;5056914;28;20320;-76
2021/10/15 10:38:37;;;;;;;3.70;1.83;;;17.50;99.90;;;;;;5052517;28;20688;-75
2021/10/15 10:41:22;;;;;;;3.10;2.45;;;17.50;99.90;;;;;;5047606;28;20229;-77
2021/10/15 10:44:15;;;;;;;2.40;2.20;;;17.50;99.90;;;;;;5053800;28;20230;-75
2021/10/15 10:46:44;;;;;;;2.40;2.20;;;17.80;99.90;;;;;;5047187;28;20225;-76
2021/10/15 10:49:18;;;;;;;3.38;2.40;;;17.80;99.90;;;;;;5054205;28;20338;-78
2021/10/15 10:52:11;;;;;;;2.33;2.13;;;17.70;99.90;;;;;;5056655;28;20222;-79
2021/10/15 10:54:39;;;;;;;1.80;1.70;;;17.70;99.90;;;;;;5054483;28;20280;-75
2021/10/15 10:57:15;;;;;;;2.17;1.98;;;17.50;99.90;;;;;;5054991;28;20214;-79
2021/10/15 10:59:42;;;;;;;3.60;1.90;;;17.60;99.90;;;;;;5056088;28;20225;-77
2021/10/15 11:02:18;;;;;;;2.15;1.92;;;17.80;99.90;;;;;;5051887;28;20645;-81
2021/10/15 11:04:57;;;;;;;2.40;2.20;;;18.00;99.90;;;;;;5054797;28;20218;-77
2021/10/15 11:07:28;;;;;;;2.40;2.20;;;18.20;99.90;;;;;;5045381;28;20274;-79
2021/10/15 11:09:57;;;;;;;2.38;1.77;;;18.40;99.90;;;;;;5056741;28;20299;-78
2021/10/15 11:12:59;;;;;;;2.03;1.90;;;18.50;99.90;;;;;;5044290;28;20244;-79
2021/10/15 11:15:30;;;;;;;2.35;2.15;;;18.30;99.90;;;;;;5062625;22;20230;-75
2021/10/15 11:17:58;;;;;;;1.83;1.70;;;17.90;99.90;;;;;;5011993;28;20632;-73
2021/10/15 11:20:27;;;;;;;2.08;1.90;;;17.90;99.90;;;;;;5015077;28;20898;-76
2021/10/15 11:22:57;;;;;;;2.20;2.00;;;18.00;99.90;;;;;;5017912;28;20308;-73
2021/10/15 11:25:27;;;;;;;3.25;1.88;;;18.10;99.90;;;;;;4987266;28;20227;-76
2021/10/15 11:27:56;;;;;;;1.95;1.83;;;18.40;99.90;;;;;;4991170;28;20227;-74
2021/10/15 11:30:25;;;;;;;2.30;1.83;;;18.60;99.90;;;;;;5014555;28;20231;-73
2021/10/15 11:32:52;;;;;;;1.95;1.77;;;18.80;99.90;;;;;;5009200;28;20228;-76
2021/10/15 11:35:22;;;;;;;3.60;2.38;;;18.70;99.90;;;;;;5013344;28;20235;-75
2021/10/15 11:37:52;;;;;;;4.70;2.03;;;18.50;99.90;;;;;;5016206;28;20237;-75
2021/10/15 11:40:24;;;;;;;1.92;1.80;;;18.20;99.90;;;;;;5028458;28;20246;-75
2021/10/15 11:42:52;;;;;;;1.88;1.77;;;18.00;99.90;;;;;;5019531;28;20234;-74
2021/10/15 11:45:37;;;;;;;2.05;1.88;;;17.90;99.90;;;;;;5027405;28;20243;-76
2021/10/15 11:48:08;;;;;;;3.03;1.85;;;17.90;99.90;;;;;;5012763;28;20704;-77
2021/10/15 11:50:41;;;;;;;2.10;1.70;;;17.90;99.90;;;;;;5014913;28;20227;-77
2021/10/15 11:53:09;;;;;;;2.35;2.10;;;17.90;99.90;;;;;;5015527;28;20277;-75
2021/10/15 11:55:40;;;;;;;2.28;2.08;;;17.90;99.90;;;;;;5016537;28;20231;-76
2021/10/15 11:58:25;;;;;;;2.22;1.80;;;17.90;99.90;;;;;;5017873;28;20227;-75
2021/10/15 12:01:10;;;;;;;2.80;2.03;;;17.80;99.90;;;;;;5016029;28;20225;-75
2021/10/15 12:03:39;;;;;;;2.28;1.77;;;17.50;99.90;;;;;;5027916;28;20594;-73
2021/10/15 12:06:19;;;;;;;2.60;2.00;;;17.40;99.90;;;;;;5029530;28;20242;-71
2021/10/15 12:08:48;;;;;;;2.20;2.00;;;17.40;99.90;;;;;;5015879;28;20276;-75
2021/10/15 12:11:19;;;;;;;2.35;1.80;;;17.70;99.90;;;;;;5017414;28;20242;-76
2021/10/15 12:13:47;;;;;;;2.00;1.90;;;17.90;99.90;;;;;;5015779;28;20679;-75
2021/10/15 12:16:19;;;;;;;2.10;1.92;;;18.20;99.90;;;;;;5029376;28;20305;-74
2021/10/15 12:18:47;;;;;;;2.08;1.88;;;18.20;99.90;;;;;;5024796;28;20227;-74
2021/10/15 12:21:14;;;;;;;1.65;1.55;;;17.90;99.90;;;;;;5029233;28;20586;-76
2021/10/15 12:23:51;;;;;;;2.30;2.10;;;18.00;99.90;;;;;;5029994;28;21709;-76
2021/10/15 12:26:20;;;;;;;2.03;1.77;;;18.20;99.90;;;;;;5024299;28;21004;-74
2021/10/15 12:28:48;;;;;;;1.60;1.50;;;18.30;99.90;;;;;;5019372;28;20424;-75
2021/10/15 12:31:34;;;;;;;2.05;1.85;;;18.20;99.90;;;;;;5023950;28;20701;-77
2021/10/15 12:34:08;;;;;;;1.63;1.52;;;18.10;99.90;;;;;;5025547;28;20284;-74
2021/10/15 12:36:38;;;;;;;2.60;1.95;;;18.10;99.90;;;;;;5028071;28;20229;-75
2021/10/15 12:39:19;;;;;;;1.85;1.65;;;18.20;99.90;;;;;;5030593;28;20218;-74
2021/10/15 12:41:49;;;;;;;1.67;1.58;;;18.10;99.90;;;;;;5030394;28;20624;-75
2021/10/15 12:44:27;;;;;;;1.75;1.65;;;18.20;99.90;;;;;;5029282;28;21352;-73
2021/10/15 12:46:56;;;;;;;2.78;1.50;;;18.30;99.90;;;;;;4992401;28;20235;-76
2021/10/15 12:49:23;;;;;;;1.73;1.50;;;18.20;99.90;;;;;;5024282;28;20224;-76
2021/10/15 12:51:50;;;;;;;2.63;1.77;;;18.30;99.90;;;;;;5014552;28;20226;-77
2021/10/15 12:54:39;;;;;;;1.70;1.55;;;18.40;99.90;;;;;;5017569;28;20223;-75
2021/10/15 12:57:13;;;;;;;1.40;1.30;;;18.30;99.90;;;;;;5030028;28;20214;-73
2021/10/15 12:59:40;;;;;;;4.93;1.55;;;18.30;99.90;;;;;;5027386;28;20257;-76
2021/10/15 13:02:08;;;;;;;2.25;1.40;;;18.30;99.90;;;;;;5017538;28;20232;-73
2021/10/15 13:04:35;;;;;;;1.52;1.42;;;18.30;99.90;;;;;;5008357;28;20231;-75
2021/10/15 13:07:02;;;;;;;1.83;1.52;;;18.40;99.90;;;;;;5012444;28;20572;-74
2021/10/15 13:09:31;;;;;;;1.73;1.63;;;18.20;99.90;;;;;;5015622;28;20233;-74
2021/10/15 13:12:00;;;;;;;1.50;1.40;;;18.10;99.90;;;;;;5028875;28;20312;-74
2021/10/15 13:14:30;;;;;;;1.80;1.70;;;18.10;99.90;;;;;;5031116;28;20306;-75
2021/10/15 13:16:57;;;;;;;2.13;1.70;;;18.20;99.90;;;;;;5027287;28;20231;-73